Time;durP1;ratioP1;P1;durP2;ratioP2;P2;SDS_P1;SDS_P2;PMS_P1;PMS_P2;Temp;Humidity;BMP_temperature;BMP_pressure;BME280_temperature;BME280_humidity;BME280_pressure;Samples;Min_cycle;Max_cycle;Signal;HPM_P1;HPM_P2
2022/05/18 19:17:01;;;;;;;7.47;2.70;;;;;;;;;;7323317;19;20054;-75
2022/05/18 22:02:39;;;;;;;7.35;2.42;;;;;;;;;;7369991;19;20021;-94
2022/05/18 22:05:05;;;;;;;8.40;2.67;;;;;;;;;;7388266;19;20010;-94
2022/05/18 22:07:30;;;;;;;7.85;2.80;;;;;;;;;;7385264;19;19998;-94
2022/05/18 22:09:55;;;;;;;8.25;2.55;;;;;;;;;;7386778;19;20007;-94
2022/05/18 22:12:21;;;;;;;7.68;2.47;;;;;;;;;;7391349;19;20003;-93
2022/05/18 22:14:48;;;;;;;7.30;2.67;;;;;;;;;;7390342;19;20010;-93
2022/05/18 22:17:13;;;;;;;7.43;2.45;;;;;;;;;;7390021;19;19999;-93
2022/05/18 22:19:38;;;;;;;4.90;2.30;;;;;;;;;;7386584;19;20511;-93
2022/05/18 22:22:04;;;;;;;6.93;2.75;;;;;;;;;;7391611;19;20248;-92
2022/05/18 22:24:35;;;;;;;5.07;2.33;;;;;;;;;;7392705;19;20062;-94
2022/05/18 22:27:02;;;;;;;6.63;2.80;;;;;;;;;;7389895;19;20041;-92
2022/05/18 22:29:28;;;;;;;6.10;2.53;;;;;;;;;;7385844;19;20002;-93
2022/05/18 22:31:53;;;;;;;4.78;2.10;;;;;;;;;;7387547;19;20002;-95
2022/05/18 22:34:18;;;;;;;23.85;18.30;;;;;;;;;;7390826;19;20018;-94
2022/05/18 22:36:44;;;;;;;19.60;12.90;;;;;;;;;;7390643;19;20011;-94
2022/05/18 22:39:10;;;;;;;11.23;6.60;;;;;;;;;;7389887;19;20006;-93
2022/05/18 22:41:40;;;;;;;8.10;3.47;;;;;;;;;;7388284;19;20014;-93
2022/05/18 22:44:06;;;;;;;8.88;2.92;;;;;;;;;;7388504;19;20098;-94
2022/05/18 22:46:31;;;;;;;6.25;2.78;;;;;;;;;;7387129;19;20025;-93
2022/05/18 22:48:57;;;;;;;7.63;2.60;;;;;;;;;;7385421;19;20395;-95
2022/05/18 22:51:23;;;;;;;6.63;2.97;;;;;;;;;;7386859;19;20018;-92
2022/05/18 22:53:49;;;;;;;6.85;2.55;;;;;;;;;;7391125;19;20007;-94
2022/05/18 22:56:15;;;;;;;7.47;2.43;;;;;;;;;;7385295;19;20031;-93
2022/05/18 22:58:40;;;;;;;8.70;2.70;;;;;;;;;;7392185;19;20294;-94
2022/05/18 23:01:06;;;;;;;6.38;2.72;;;;;;;;;;7390438;19;20037;-94
2022/05/18 23:03:34;;;;;;;6.63;2.90;;;;;;;;;;7390486;19;20027;-93
2022/05/18 23:06:00;;;;;;;8.77;2.70;;;;;;;;;;7389450;19;20011;-93
2022/05/18 23:08:26;;;;;;;7.20;2.80;;;;;;;;;;7390482;19;19995;-93
2022/05/18 23:10:51;;;;;;;6.20;2.65;;;;;;;;;;7387850;19;20007;-94
2022/05/18 23:13:16;;;;;;;6.47;2.90;;;;;;;;;;7389601;19;20054;-94
2022/05/18 23:15:54;;;;;;;5.75;2.58;;;;;;;;;;7389163;19;20007;-94
2022/05/18 23:18:20;;;;;;;6.25;2.70;;;;;;;;;;7382315;19;20014;-95
2022/05/18 23:20:46;;;;;;;6.20;2.60;;;;;;;;;;7387510;19;20002;-95
2022/05/18 23:26:14;;;;;;;6.53;2.78;;;;;;;;;;7381014;19;19999;-95
2022/05/18 23:28:40;;;;;;;7.13;2.55;;;;;;;;;;7384403;19;20026;-94
2022/05/18 23:31:06;;;;;;;8.35;2.53;;;;;;;;;;7385566;19;19998;-94
2022/05/18 23:33:32;;;;;;;5.95;2.92;;;;;;;;;;7386381;19;20043;-94
2022/05/18 23:35:58;;;;;;;5.55;2.60;;;;;;;;;;7383650;19;20490;-94
2022/05/18 23:38:24;;;;;;;7.82;2.78;;;;;;;;;;7384823;19;19998;-95
2022/05/18 23:40:49;;;;;;;5.88;2.35;;;;;;;;;;7385243;19;20026;-94
2022/05/18 23:43:14;;;;;;;6.20;2.60;;;;;;;;;;7387843;19;20006;-95
2022/05/18 23:45:40;;;;;;;7.20;2.42;;;;;;;;;;7408899;19;20256;-95
2022/05/18 23:48:08;;;;;;;7.18;2.97;;;;;;;;;;7395699;19;20033;-94
2022/05/18 23:53:17;;;;;;;;;;;;;;;;;;7392744;19;20015;-93
2022/05/18 23:55:43;;;;;;;6.27;2.70;;;;;;;;;;7389464;19;19923;-95
2022/05/18 23:58:09;;;;;;;6.40;2.85;;;;;;;;;;7387850;19;20130;-95
